Time;durP1;ratioP1;P1;durP2;ratioP2;P2;SDS_P1;SDS_P2;PMS_P1;PMS_P2;Temp;Humidity;BMP_temperature;BMP_pressure;BME280_temperature;BME280_humidity;BME280_pressure;Samples;Min_cycle;Max_cycle;Signal;HPM_P1;HPM_P2
2022/05/27 00:01:51;;;;;;;51.75;24.70;;;;;;;16.56;85.36;93105.84;4995019;28;20073;-74
2022/05/27 00:04:16;;;;;;;56.00;25.13;;;;;;;16.49;86.07;93105.50;4995284;28;20041;-74
2022/05/27 00:06:42;;;;;;;47.15;24.55;;;;;;;16.45;85.81;93103.47;5012615;28;20033;-74
2022/05/27 00:09:08;;;;;;;47.08;24.15;;;;;;;16.40;86.43;93100.19;4995126;28;20046;-74
2022/05/27 00:11:33;;;;;;;47.33;23.70;;;;;;;16.34;86.64;93096.13;4995292;28;20045;-74
2022/05/27 00:13:59;;;;;;;44.83;23.83;;;;;;;16.29;86.64;93101.56;4995607;28;20045;-74
2022/05/27 00:16:25;;;;;;;52.38;23.42;;;;;;;16.26;86.77;93095.03;4994823;28;20042;-74
2022/05/27 00:18:51;;;;;;;46.45;23.63;;;;;;;16.20;87.03;93085.69;4994787;28;20557;-74
2022/05/27 00:21:17;;;;;;;51.05;22.90;;;;;;;16.21;87.33;93092.50;4994647;28;20034;-74
2022/05/27 00:23:42;;;;;;;51.42;23.35;;;;;;;16.15;87.48;93093.75;4978581;28;20495;-74
2022/05/27 00:26:09;;;;;;;51.70;23.63;;;;;;;16.13;87.67;93093.28;5012142;28;20030;-74
2022/05/27 00:28:35;;;;;;;45.42;23.63;;;;;;;16.11;87.73;93087.53;5012141;28;20369;-74
2022/05/27 00:31:00;;;;;;;51.58;24.38;;;;;;;16.10;88.06;93089.38;5012078;28;20124;-74
2022/05/27 00:33:26;;;;;;;50.05;25.52;;;;;;;16.08;88.35;93088.13;4994490;28;20120;-75
2022/05/27 00:35:52;;;;;;;53.63;25.50;;;;;;;16.05;88.23;93078.16;4978168;28;20030;-74
2022/05/27 00:38:18;;;;;;;47.90;25.48;;;;;;;16.01;88.60;93080.66;4994339;28;20057;-74
2022/05/27 00:40:49;;;;;;;53.00;25.13;;;;;;;15.99;88.51;93083.59;5010835;28;20041;-74
2022/05/27 00:43:16;;;;;;;62.65;25.83;;;;;;;15.99;88.15;93085.47;4993826;28;20034;-74
2022/05/27 00:45:45;;;;;;;50.40;24.67;;;;;;;15.98;87.72;93083.88;4992655;28;20029;-74
2022/05/27 00:48:14;;;;;;;54.85;25.88;;;;;;;15.98;88.00;93076.75;4992322;28;20027;-74
2022/05/27 00:50:43;;;;;;;54.28;25.05;;;;;;;15.97;87.95;93077.84;4992262;28;20042;-74
2022/05/27 00:53:11;;;;;;;54.78;26.60;;;;;;;15.98;87.87;93074.09;4990843;28;20026;-74
2022/05/27 00:55:43;;;;;;;60.88;29.20;;;;;;;15.98;87.74;93083.88;4992480;28;20403;-74
2022/05/27 00:58:24;;;;;;;65.43;29.17;;;;;;;15.97;87.89;93069.91;4977843;28;20034;-74
2022/05/27 01:00:50;;;;;;;58.13;28.50;;;;;;;15.97;87.83;93072.56;5011560;28;20030;-74
2022/05/27 01:03:17;;;;;;;66.22;28.35;;;;;;;15.96;87.83;93064.94;5011865;28;20467;-74
2022/05/27 01:05:44;;;;;;;54.00;27.92;;;;;;;15.94;87.92;93062.59;4993993;28;20408;-74
2022/05/27 01:08:12;;;;;;;56.00;26.83;;;;;;;15.93;88.26;93055.75;5011510;28;20034;-74
2022/05/27 01:10:51;;;;;;;60.60;27.67;;;;;;;15.91;88.40;93054.50;4993994;28;20038;-74
2022/05/27 01:13:54;;;;;;;68.15;26.63;;;;;;;15.90;88.19;93061.66;5011434;28;20033;-74
2022/05/27 01:16:37;;;;;;;57.10;27.23;;;;;;;15.90;88.48;93053.75;5011254;28;20124;-74
2022/05/27 01:22:38;;;;;;;52.92;26.15;;;;;;;15.87;87.92;93049.03;5011316;28;20116;-74
2022/05/27 01:25:25;;;;;;;55.78;27.33;;;;;;;15.83;88.22;93053.41;4996693;28;20089;-74
2022/05/27 01:27:57;;;;;;;58.95;28.13;;;;;;;15.80;87.54;93048.72;4974483;28;20044;-74
2022/05/27 01:30:33;;;;;;;62.30;27.92;;;;;;;15.78;87.73;93049.03;4974351;28;20030;-74
2022/05/27 01:33:14;;;;;;;65.65;28.83;;;;;;;15.77;88.04;93047.47;4991604;28;20140;-74
2022/05/27 01:35:52;;;;;;;66.63;27.75;;;;;;;15.75;88.11;93048.84;4974274;28;20158;-75
2022/05/27 01:38:36;;;;;;;57.95;26.25;;;;;;;15.70;88.16;93044.47;4993239;28;20432;-74
2022/05/27 01:41:27;;;;;;;55.30;25.63;;;;;;;15.67;88.14;93042.44;5011226;28;20503;-74
2022/05/27 01:44:02;;;;;;;66.43;27.20;;;;;;;15.63;88.37;93044.13;4993557;28;20048;-74
2022/05/27 01:46:39;;;;;;;66.85;27.45;;;;;;;15.60;88.57;93044.72;5011055;28;20428;-74
2022/05/27 01:49:31;;;;;;;56.00;27.30;;;;;;;15.57;88.17;93038.19;4993511;28;20508;-75
2022/05/27 01:52:17;;;;;;;52.03;25.15;;;;;;;15.56;88.35;93034.00;5011281;28;20030;-75
2022/05/27 01:55:00;;;;;;;59.60;25.67;;;;;;;15.57;88.20;93042.69;4992905;28;20450;-74
2022/05/27 01:57:54;;;;;;;54.78;25.85;;;;;;;15.52;88.10;93043.59;4993462;28;20068;-74
2022/05/27 02:00:23;;;;;;;58.85;24.30;;;;;;;15.49;87.71;93038.13;5010711;28;20034;-75
2022/05/27 02:03:15;;;;;;;49.38;26.52;;;;;;;15.49;87.79;93052.13;5010624;28;20393;-74
2022/05/27 02:05:44;;;;;;;47.63;24.13;;;;;;;15.46;87.55;93052.72;4980798;28;20037;-74
2022/05/27 02:08:16;;;;;;;48.17;23.52;;;;;;;15.44;87.72;93049.59;5014723;28;20045;-74
2022/05/27 02:10:50;;;;;;;46.33;21.75;;;;;;;15.46;87.16;93044.78;4997027;28;20391;-75
2022/05/27 02:13:27;;;;;;;41.60;19.95;;;;;;;15.44;87.11;93041.69;4997320;28;20045;-74
2022/05/27 02:15:54;;;;;;;41.45;18.02;;;;;;;15.45;86.59;93042.47;5014438;28;20031;-74
2022/05/27 02:18:44;;;;;;;37.05;18.13;;;;;;;15.42;86.35;93043.84;4996902;28;20022;-74
2022/05/27 02:21:20;;;;;;;44.33;19.63;;;;;;;15.34;86.59;93039.31;5013962;28;20045;-74
2022/05/27 02:23:54;;;;;;;39.80;20.92;;;;;;;15.31;86.99;93039.91;5014355;28;20046;-74
2022/05/27 02:26:24;;;;;;;44.00;20.90;;;;;;;15.29;87.08;93042.06;5014322;28;20038;-74
2022/05/27 02:28:56;;;;;;;44.13;19.92;;;;;;;15.28;87.02;93038.66;5014247;28;20036;-74
2022/05/27 02:31:24;;;;;;;;;;;;;;;15.24;87.39;93032.41;4997167;28;20103;-74
2022/05/27 02:36:55;;;;;;;42.65;19.25;;;;;;;15.18;87.53;93026.50;5012744;28;20042;-74
2022/05/27 02:39:21;;;;;;;37.05;19.77;;;;;;;15.16;87.29;93023.38;5014647;28;20392;-74
2022/05/27 02:42:02;;;;;;;41.45;19.83;;;;;;;15.15;87.95;93026.31;4996511;28;20065;-74
2022/05/27 02:44:57;;;;;;;41.33;20.45;;;;;;;15.14;87.75;93019.50;5005879;28;20490;-74
2022/05/27 02:47:31;;;;;;;40.65;20.30;;;;;;;15.12;87.63;93025.06;5009233;28;20061;-74
2022/05/27 02:50:22;;;;;;;52.10;21.40;;;;;;;15.08;88.11;93018.81;5014124;28;20041;-75
2022/05/27 02:53:00;;;;;;;47.40;21.52;;;;;;;15.05;88.30;93005.47;4996314;28;20057;-74
2022/05/27 02:55:38;;;;;;;53.97;25.80;;;;;;;15.04;88.87;93004.69;5013693;28;20029;-75
2022/05/27 02:58:04;;;;;;;55.22;26.13;;;;;;;15.02;89.46;93006.06;4996129;28;20462;-74
2022/05/27 03:00:35;;;;;;;60.50;28.23;;;;;;;15.01;89.62;93005.28;5014044;28;20109;-74
2022/05/27 03:03:02;;;;;;;68.53;27.20;;;;;;;14.98;89.93;93004.03;4996191;28;20483;-74
2022/05/27 03:05:43;;;;;;;58.97;28.90;;;;;;;14.96;90.25;92995.63;4996136;28;20034;-74
2022/05/27 03:08:16;;;;;;;64.87;30.90;;;;;;;14.97;90.23;92996.41;4996469;28;20030;-74
2022/05/27 03:11:02;;;;;;;69.00;29.52;;;;;;;14.98;90.76;92995.34;5013510;28;20030;-75
2022/05/27 03:13:56;;;;;;;63.13;31.60;;;;;;;14.96;90.97;92998.28;5012467;28;20443;-74
2022/05/27 03:16:30;;;;;;;63.00;29.77;;;;;;;14.98;90.60;92990.84;5011978;28;20026;-74
2022/05/27 03:19:22;;;;;;;66.20;29.20;;;;;;;14.99;90.31;92994.25;5012891;28;20042;-74
2022/05/27 03:21:54;;;;;;;62.92;29.00;;;;;;;14.99;90.27;92999.53;5013353;28;20029;-74
2022/05/27 03:24:33;;;;;;;58.55;28.67;;;;;;;14.98;90.18;93001.38;5013353;28;20040;-74
2022/05/27 03:27:18;;;;;;;58.90;28.40;;;;;;;14.98;90.57;93003.25;5011033;28;20038;-74
2022/05/27 03:29:44;;;;;;;61.30;29.10;;;;;;;14.97;90.28;93001.69;4995752;28;20034;-74
2022/05/27 03:32:24;;;;;;;70.38;30.45;;;;;;;14.97;89.68;92999.84;4995816;28;20037;-74
2022/05/27 03:35:04;;;;;;;55.15;25.85;;;;;;;14.98;89.72;92992.72;5012924;28;20029;-74
2022/05/27 03:37:56;;;;;;;52.35;24.73;;;;;;;14.98;89.73;92993.47;4995345;28;20053;-74
2022/05/27 03:40:30;;;;;;;49.73;25.00;;;;;;;14.95;90.05;92991.47;4981671;28;20344;-75
2022/05/27 03:42:57;;;;;;;47.13;23.27;;;;;;;14.92;89.86;92996.53;4976200;28;20039;-75
2022/05/27 03:45:24;;;;;;;52.65;24.65;;;;;;;14.91;89.90;93001.03;4976704;28;20492;-75
2022/05/27 03:47:51;;;;;;;55.05;24.10;;;;;;;14.89;89.91;92994.50;4993667;28;20578;-75
2022/05/27 03:50:20;;;;;;;60.92;25.90;;;;;;;14.86;90.35;93000.38;4978634;28;20116;-74
2022/05/27 03:52:49;;;;;;;51.10;24.77;;;;;;;14.85;90.52;92990.91;5011590;28;20045;-74
2022/05/27 03:55:17;;;;;;;49.88;23.92;;;;;;;14.85;90.62;92996.97;5012606;28;20403;-74
2022/05/27 03:57:43;;;;;;;53.47;25.00;;;;;;;14.86;91.21;92997.72;4995121;28;20099;-74
2022/05/27 04:00:12;;;;;;;59.70;25.55;;;;;;;14.88;90.95;93001.66;5012466;28;20046;-75
2022/05/27 04:02:41;;;;;;;65.50;26.08;;;;;;;14.93;90.52;93000.75;5012246;28;20044;-74
2022/05/27 04:05:09;;;;;;;50.83;24.77;;;;;;;14.98;90.21;92996.13;5012654;28;20089;-75
2022/05/27 04:07:35;;;;;;;49.03;23.60;;;;;;;15.01;89.93;92989.47;5012295;28;20508;-74
2022/05/27 04:10:00;;;;;;;61.45;23.77;;;;;;;15.02;89.35;92987.59;4995491;28;20026;-74
2022/05/27 04:12:26;;;;;;;48.90;24.05;;;;;;;15.03;89.14;92989.16;4979397;28;20038;-74
2022/05/27 04:14:53;;;;;;;49.60;20.95;;;;;;;15.05;88.86;92979.88;5012117;28;20112;-74
2022/05/27 04:17:30;;;;;;;42.10;20.50;;;;;;;15.11;88.31;92989.22;5011580;28;20025;-74
2022/05/27 04:19:57;;;;;;;41.78;20.35;;;;;;;15.17;87.51;92987.22;5012141;28;20527;-74
2022/05/27 04:22:23;;;;;;;42.83;19.88;;;;;;;15.18;87.52;92984.31;5010636;28;20037;-75
2022/05/27 04:24:49;;;;;;;42.20;18.92;;;;;;;15.15;87.77;92979.63;5011668;28;20039;-75
2022/05/27 04:27:17;;;;;;;40.05;18.17;;;;;;;15.17;88.11;92977.47;4990121;28;20038;-76
2022/05/27 04:29:46;;;;;;;33.85;17.13;;;;;;;15.22;87.42;92984.50;5009042;28;20448;-75
2022/05/27 04:32:12;;;;;;;40.35;18.38;;;;;;;15.31;87.00;92987.16;5011258;28;20306;-75
2022/05/27 04:34:38;;;;;;;42.65;20.98;;;;;;;15.38;86.74;92983.00;4993516;28;20061;-75
2022/05/27 04:37:04;;;;;;;52.95;25.33;;;;;;;15.48;86.44;92987.25;4997892;28;20458;-76
2022/05/27 04:39:30;;;;;;;41.75;21.65;;;;;;;15.55;86.55;92981.53;5012034;28;20073;-76
2022/05/27 04:41:56;;;;;;;48.60;21.88;;;;;;;15.61;86.42;92981.09;4992225;28;20076;-75
2022/05/27 04:44:22;;;;;;;56.05;22.27;;;;;;;15.66;86.31;92977.53;4992920;28;20034;-76
2022/05/27 04:46:47;;;;;;;48.35;22.35;;;;;;;15.73;86.14;92979.75;4977859;28;20415;-76
2022/05/27 04:49:50;;;;;;;45.72;22.92;;;;;;;15.79;85.92;92986.47;4979404;28;20454;-76
2022/05/27 04:51:59;;;;;;;48.03;22.33;;;;;;;15.88;85.80;92992.53;5011785;28;20034;-76
2022/05/27 04:54:26;;;;;;;56.22;22.08;;;;;;;15.96;85.71;92991.00;5011697;28;20026;-76
2022/05/27 04:56:52;;;;;;;49.83;20.88;;;;;;;16.06;85.18;92995.25;5011699;28;20128;-75
2022/05/27 04:59:17;;;;;;;45.70;20.40;;;;;;;16.16;84.76;92990.41;4994325;28;20124;-76
2022/05/27 05:01:43;;;;;;;53.95;22.10;;;;;;;16.26;84.69;92994.66;5012031;28;20084;-76
2022/05/27 05:04:08;;;;;;;60.90;22.95;;;;;;;16.34;84.63;92991.22;5011782;28;20117;-76
2022/05/27 05:06:34;;;;;;;62.85;24.98;;;;;;;16.42;85.02;92992.34;4994228;28;20033;-76
2022/05/27 05:09:00;;;;;;;51.78;25.02;;;;;;;16.51;84.66;92984.44;4983134;28;20075;-76
2022/05/27 05:11:25;;;;;;;68.90;25.70;;;;;;;16.59;84.15;92978.34;5010724;28;20407;-76
2022/05/27 05:13:51;;;;;;;52.88;23.95;;;;;;;16.66;84.31;92978.66;4994562;28;20057;-77
2022/05/27 05:16:16;;;;;;;44.10;23.10;;;;;;;16.75;83.99;92971.53;5011275;28;20026;-76
2022/05/27 05:18:42;;;;;;;51.53;23.15;;;;;;;16.84;84.13;92972.31;4994222;28;20107;-77
2022/05/27 05:21:08;;;;;;;49.20;22.50;;;;;;;16.96;83.91;92968.25;4992917;28;20038;-77
2022/05/27 05:23:33;;;;;;;45.58;19.08;;;;;;;17.06;83.24;92976.63;5010010;28;20511;-76
2022/05/27 05:25:59;;;;;;;36.78;18.55;;;;;;;17.19;81.76;92971.47;4993865;28;20515;-76
2022/05/27 05:28:25;;;;;;;38.50;18.20;;;;;;;17.28;82.15;92970.34;5011260;28;20045;-75
2022/05/27 05:30:50;;;;;;;33.78;16.10;;;;;;;17.55;81.34;92980.88;4977544;28;20037;-76
2022/05/27 05:33:16;;;;;;;32.30;17.08;;;;;;;17.56;81.36;92983.22;4993801;28;20054;-75
2022/05/27 05:35:42;;;;;;;37.72;16.30;;;;;;;17.51;80.92;92988.66;5011568;28;20045;-76
2022/05/27 05:38:08;;;;;;;46.10;17.05;;;;;;;17.55;80.39;92984.28;5012319;28;20049;-77
2022/05/27 05:40:34;;;;;;;52.55;17.77;;;;;;;17.61;80.48;92990.97;4997780;28;20504;-77
2022/05/27 05:43:02;;;;;;;42.28;17.27;;;;;;;17.75;80.48;92980.16;4997593;28;20143;-77
2022/05/27 05:45:28;;;;;;;32.90;17.38;;;;;;;17.94;79.52;92984.31;5015802;28;20029;-77
2022/05/27 05:47:54;;;;;;;44.85;18.23;;;;;;;18.40;78.34;92986.06;5016051;28;20052;-77
2022/05/27 05:50:20;;;;;;;33.30;16.75;;;;;;;19.20;75.29;93000.28;5016186;28;20649;-77
2022/05/27 05:52:46;;;;;;;32.78;16.58;;;;;;;19.71;73.09;93004.31;4998620;28;20144;-77
2022/05/27 05:55:13;;;;;;;34.60;16.42;;;;;;;20.27;70.43;92997.69;5015641;28;20392;-77
2022/05/27 05:57:42;;;;;;;34.05;15.98;;;;;;;20.35;68.93;93002.09;5014569;28;20042;-77
2022/05/27 06:00:10;;;;;;;37.53;15.43;;;;;;;20.61;68.88;92987.69;4997820;28;20045;-78
2022/05/27 06:02:39;;;;;;;41.00;16.40;;;;;;;20.97;68.71;92998.22;4997778;28;20037;-77
2022/05/27 06:05:06;;;;;;;35.05;17.35;;;;;;;21.38;66.86;93001.59;5013967;28;20404;-77
2022/05/27 06:07:32;;;;;;;34.85;17.05;;;;;;;21.78;65.23;92994.63;4997844;28;20167;-77
2022/05/27 06:09:58;;;;;;;34.22;17.65;;;;;;;22.03;64.53;92997.88;4978921;28;20030;-77
2022/05/27 06:12:25;;;;;;;42.90;18.92;;;;;;;22.27;64.13;92998.81;4994730;28;20406;-77
2022/05/27 06:14:53;;;;;;;43.30;18.67;;;;;;;22.44;62.70;92993.91;5014098;28;20042;-77
2022/05/27 06:17:18;;;;;;;39.95;19.95;;;;;;;22.65;61.03;92990.94;4982502;28;20137;-78
2022/05/27 06:19:44;;;;;;;48.40;21.42;;;;;;;22.71;61.03;92991.41;4997734;28;20113;-77
2022/05/27 06:22:10;;;;;;;53.15;22.08;;;;;;;22.66;59.89;92983.69;4997598;28;20121;-77
2022/05/27 06:24:35;;;;;;;50.08;22.77;;;;;;;22.74;59.35;92981.94;4997761;28;20037;-77
2022/05/27 06:27:05;;;;;;;47.33;22.08;;;;;;;23.02;59.64;92977.22;5015232;28;20384;-77
2022/05/27 06:34:59;;;;;;;48.72;17.95;;;;;;;22.59;60.18;92984.31;4998042;28;20046;-77
2022/05/27 06:37:25;;;;;;;47.95;16.90;;;;;;;21.89;64.32;92989.56;4977940;28;20224;-77
2022/05/27 06:39:52;;;;;;;37.92;19.83;;;;;;;21.05;67.94;92988.53;4994838;28;20557;-77
2022/05/27 06:42:17;;;;;;;42.97;20.02;;;;;;;21.08;69.10;92987.88;4994276;28;20488;-77
2022/05/27 06:44:43;;;;;;;34.88;18.95;;;;;;;21.13;68.49;92978.88;4994484;28;20031;-77
2022/05/27 06:47:10;;;;;;;114.82;26.00;;;;;;;21.18;68.75;92975.94;4995181;28;20441;-77
2022/05/27 06:49:37;;;;;;;86.55;20.67;;;;;;;21.19;68.95;92972.19;4995033;28;20480;-77
2022/05/27 06:52:04;;;;;;;42.50;18.88;;;;;;;21.43;69.10;92968.63;4993935;28;20500;-77
2022/05/27 06:54:30;;;;;;;33.65;17.40;;;;;;;22.00;67.34;92966.59;4994338;28;20026;-77
2022/05/27 06:56:56;;;;;;;40.92;19.05;;;;;;;22.09;66.32;92972.53;4995282;28;20041;-76
2022/05/27 06:59:23;;;;;;;38.55;19.67;;;;;;;21.99;67.22;92975.72;4994006;28;20536;-77
2022/05/27 07:01:48;;;;;;;44.15;19.35;;;;;;;21.48;69.10;92970.28;4994956;28;20089;-77
2022/05/27 07:04:17;;;;;;;95.55;21.65;;;;;;;20.97;68.78;92982.25;4995041;28;20042;-77
2022/05/27 07:06:45;;;;;;;58.38;19.33;;;;;;;20.35;70.01;92980.81;4993254;28;20041;-77
2022/05/27 07:09:22;;;;;;;38.63;18.90;;;;;;;20.48;70.21;92982.34;4993502;28;20022;-77
2022/05/27 07:11:49;;;;;;;49.70;18.17;;;;;;;20.76;70.30;92986.97;4994665;28;20462;-77
2022/05/27 07:14:15;;;;;;;36.90;17.80;;;;;;;20.77;70.04;92983.97;4994549;28;20031;-77
2022/05/27 07:16:42;;;;;;;39.40;18.08;;;;;;;20.86;69.86;92985.75;4994479;28;20035;-77
2022/05/27 07:19:09;;;;;;;35.42;18.70;;;;;;;20.79;70.87;92986.31;4993143;28;20150;-77
2022/05/27 07:21:39;;;;;;;35.22;18.65;;;;;;;20.59;72.37;92983.47;4994509;28;20145;-77
2022/05/27 07:24:09;;;;;;;41.25;19.23;;;;;;;20.57;73.36;92985.69;4993220;28;20040;-77
2022/05/27 07:26:37;;;;;;;37.30;19.10;;;;;;;20.82;70.95;92982.19;4994482;28;20042;-77
2022/05/27 07:29:03;;;;;;;39.80;18.67;;;;;;;21.49;69.91;92972.59;4994642;28;20034;-77
2022/05/27 07:31:29;;;;;;;36.47;18.25;;;;;;;21.69;69.15;92975.38;4994396;28;20038;-78
2022/05/27 07:33:56;;;;;;;33.75;18.02;;;;;;;22.00;66.30;92974.59;4992981;28;20416;-77
2022/05/27 07:36:22;;;;;;;30.15;17.13;;;;;;;21.70;66.20;92974.25;4994382;28;20034;-77
2022/05/27 07:38:51;;;;;;;48.78;22.20;;;;;;;21.29;65.68;92969.03;5010366;28;20046;-77
2022/05/27 07:41:17;;;;;;;31.33;16.80;;;;;;;21.23;68.69;92965.06;5012240;28;20050;-77
2022/05/27 07:43:44;;;;;;;30.90;16.83;;;;;;;21.20;68.85;92960.41;5013520;28;20026;-77
2022/05/27 07:46:11;;;;;;;35.33;17.48;;;;;;;20.97;70.00;92965.50;4996033;28;20065;-77
2022/05/27 07:48:37;;;;;;;41.25;17.35;;;;;;;21.00;70.11;92959.50;5013514;28;20468;-77
2022/05/27 07:51:03;;;;;;;39.92;18.67;;;;;;;20.91;69.16;92957.00;5013548;28;20109;-77
2022/05/27 07:53:29;;;;;;;37.95;18.13;;;;;;;21.11;68.73;92957.91;5014743;28;20045;-77
2022/05/27 07:55:55;;;;;;;36.00;17.90;;;;;;;21.17;69.37;92953.13;5013240;28;20173;-77
2022/05/27 07:58:21;;;;;;;29.75;15.35;;;;;;;21.39;68.12;92951.75;5013226;28;20522;-77
2022/05/27 08:00:47;;;;;;;35.80;17.63;;;;;;;21.16;68.04;92955.00;5014259;28;20060;-77
2022/05/27 08:03:13;;;;;;;40.47;17.65;;;;;;;21.28;68.58;92959.50;4995004;28;20049;-77
2022/05/27 08:05:39;;;;;;;33.45;14.18;;;;;;;21.31;68.84;92964.13;5012253;28;20034;-77
2022/05/27 08:08:06;;;;;;;37.50;18.00;;;;;;;21.29;67.88;92966.34;5013904;28;20046;-77
2022/05/27 08:10:35;;;;;;;36.53;19.02;;;;;;;21.41;67.79;92961.00;5012916;28;20030;-77
2022/05/27 08:13:01;;;;;;;35.95;16.63;;;;;;;21.81;67.51;92962.72;5013482;28;20030;-77
2022/05/27 08:15:28;;;;;;;40.97;18.08;;;;;;;21.52;67.39;92957.81;4995463;28;20068;-77
2022/05/27 08:17:54;;;;;;;37.13;15.90;;;;;;;21.61;68.18;92955.75;4995369;28;20033;-77
2022/05/27 08:20:27;;;;;;;36.90;18.63;;;;;;;21.57;67.09;92953.03;5013301;28;20062;-77
2022/05/27 08:22:53;;;;;;;38.55;18.42;;;;;;;21.69;66.49;92959.41;5013281;28;20052;-77
2022/05/27 08:25:21;;;;;;;34.25;17.27;;;;;;;21.88;66.52;92959.47;5011502;28;20137;-77
2022/05/27 08:27:46;;;;;;;33.47;17.23;;;;;;;22.04;66.06;92962.91;5012829;28;20052;-77
2022/05/27 08:30:16;;;;;;;35.63;17.50;;;;;;;21.86;65.18;92955.59;5011841;28;20046;-77
2022/05/27 08:32:41;;;;;;;50.78;17.38;;;;;;;22.00;65.31;92956.72;5013122;28;20068;-77
2022/05/27 08:38:01;;;;;;;34.17;16.33;;;;;;;22.23;66.06;92951.53;5012808;28;20108;-77
2022/05/27 08:41:00;;;;;;;33.75;17.35;;;;;;;22.20;65.45;92949.53;5012895;28;20038;-77
2022/05/27 08:44:01;;;;;;;50.17;16.98;;;;;;;22.34;64.91;92959.00;5011662;28;20046;-77
2022/05/27 08:46:39;;;;;;;40.55;17.40;;;;;;;22.32;64.07;92955.91;4995473;28;20164;-77
2022/05/27 08:49:08;;;;;;;35.92;16.33;;;;;;;22.48;63.86;92947.88;4995423;28;20040;-77
2022/05/27 08:51:41;;;;;;;39.03;17.75;;;;;;;22.26;63.35;92954.63;5013074;28;20079;-77
2022/05/27 08:54:20;;;;;;;27.25;15.30;;;;;;;22.37;65.06;92958.31;4995362;28;20081;-77
2022/05/27 08:59:40;;;;;;;32.15;16.73;;;;;;;22.55;63.00;92943.44;4995198;28;20415;-77
2022/05/27 09:02:18;;;;;;;34.38;16.60;;;;;;;22.53;63.61;92945.69;5012948;28;20048;-77
2022/05/27 09:04:53;;;;;;;28.75;14.63;;;;;;;22.59;62.90;92944.28;5012853;28;20128;-77
2022/05/27 09:07:31;;;;;;;27.98;15.38;;;;;;;22.53;62.98;92951.03;5012810;28;20479;-77
2022/05/27 09:09:59;;;;;;;35.40;18.15;;;;;;;22.61;62.48;92952.72;4996175;28;20055;-77
2022/05/27 09:13:11;;;;;;;23.50;11.80;;;;;;;22.54;62.15;92957.13;5012196;28;20092;-75
2022/05/27 09:15:59;;;;;;;36.50;15.05;;;;;;;22.85;61.23;92948.22;5009090;28;20499;-75
2022/05/27 09:18:36;;;;;;;38.08;16.13;;;;;;;22.77;61.87;92951.91;4978534;28;20049;-74
2022/05/27 09:21:23;;;;;;;35.47;14.80;;;;;;;22.96;60.52;92940.44;4996711;28;20034;-77
2022/05/27 09:24:02;;;;;;;40.40;16.20;;;;;;;23.02;60.06;92945.16;5015264;28;20033;-77
2022/05/27 09:27:00;;;;;;;43.58;15.48;;;;;;;22.98;60.40;92944.28;5012590;28;20069;-76
2022/05/27 09:29:54;;;;;;;32.45;16.45;;;;;;;22.96;59.08;92941.19;5013941;28;20041;-77
2022/05/27 09:32:31;;;;;;;21.15;10.23;;;;;;;23.23;59.24;92947.44;5015112;28;20566;-77
2022/05/27 09:35:02;;;;;;;29.45;15.55;;;;;;;23.15;59.10;92937.78;4995966;28;20069;-77
2022/05/27 09:37:34;;;;;;;30.40;13.55;;;;;;;23.11;59.58;92938.84;5012608;28;20073;-77
2022/05/27 09:40:07;;;;;;;27.52;14.77;;;;;;;23.30;59.49;92943.38;5014239;28;20057;-78
2022/05/27 09:42:42;;;;;;;39.72;16.92;;;;;;;23.66;55.73;92936.75;5013809;28;20044;-77
2022/05/27 09:45:08;;;;;;;34.50;16.67;;;;;;;23.94;56.10;92933.78;5011060;28;20092;-76
2022/05/27 09:47:35;;;;;;;31.17;15.90;;;;;;;24.17;58.22;92931.06;5011243;28;20026;-77
2022/05/27 09:50:08;;;;;;;27.05;15.20;;;;;;;24.47;55.58;92923.09;4993933;28;20104;-76
2022/05/27 09:52:40;;;;;;;31.58;14.45;;;;;;;24.50;55.28;92932.31;4997980;28;20395;-75
2022/05/27 09:55:21;;;;;;;;;;;;;;;24.45;55.81;92932.59;5002287;28;20038;-79
2022/05/27 09:58:01;;;;;;;27.10;14.82;;;;;;;24.49;54.99;92925.41;5013291;28;19917;-77
2022/05/27 10:00:53;;;;;;;29.83;14.48;;;;;;;24.59;55.69;92932.81;5015625;28;20030;-77
2022/05/27 10:03:32;;;;;;;34.83;13.77;;;;;;;24.40;54.02;92928.31;4997454;28;20045;-79
2022/05/27 10:06:00;;;;;;;24.88;14.30;;;;;;;24.24;54.97;92920.47;5008039;28;20073;-78
2022/05/27 10:08:34;;;;;;;29.17;14.52;;;;;;;24.20;54.62;92914.28;4999630;28;20048;-78
2022/05/27 10:11:46;;;;;;;25.73;14.50;;;;;;;24.28;53.45;92915.19;4983423;28;20062;-77
2022/05/27 10:14:22;;;;;;;26.33;15.52;;;;;;;24.30;54.92;92912.91;4965384;28;20057;-78
2022/05/27 10:17:13;;;;;;;32.40;14.43;;;;;;;24.12;55.41;92907.31;4999138;28;20522;-78
2022/05/27 10:19:42;;;;;;;29.10;15.32;;;;;;;23.98;57.58;92904.41;4971211;28;20030;-78
2022/05/27 10:22:19;;;;;;;33.53;15.80;;;;;;;23.99;56.94;92908.66;4998776;28;20113;-78
2022/05/27 10:24:56;;;;;;;32.20;16.40;;;;;;;24.02;56.16;92902.56;4999661;28;20034;-77
2022/05/27 10:27:33;;;;;;;30.73;14.40;;;;;;;23.88;57.82;92895.13;5008246;28;20498;-77
2022/05/27 10:30:01;;;;;;;22.75;11.95;;;;;;;23.87;57.69;92894.34;5009577;28;20039;-77
2022/05/27 10:32:38;;;;;;;30.00;15.10;;;;;;;23.74;57.02;92892.22;5005267;28;20113;-77
2022/05/27 10:35:08;;;;;;;28.83;14.30;;;;;;;23.99;57.38;92889.94;4989610;28;20491;-77
2022/05/27 10:37:33;;;;;;;27.10;14.80;;;;;;;23.79;58.27;92890.03;4989063;28;20042;-77
2022/05/27 10:40:20;;;;;;;39.05;15.18;;;;;;;24.00;57.16;92886.91;4993392;28;20040;-77
2022/05/27 10:43:12;;;;;;;32.60;16.08;;;;;;;24.14;55.75;92885.53;5016861;28;20391;-78
2022/05/27 10:45:42;;;;;;;29.90;16.45;;;;;;;24.21;55.88;92881.06;4990975;28;20379;-79
2022/05/27 10:48:13;;;;;;;33.72;14.43;;;;;;;24.12;56.81;92872.56;5010844;28;20040;-78
2022/05/27 10:51:00;;;;;;;30.67;14.75;;;;;;;24.17;55.98;92866.13;5011297;28;20057;-77
2022/05/27 10:53:51;;;;;;;33.15;16.50;;;;;;;24.11;57.56;92865.66;5013796;28;20038;-78
2022/05/27 10:56:19;;;;;;;22.50;12.32;;;;;;;24.48;56.57;92865.00;5011289;28;20034;-77
2022/05/27 11:02:06;;;;;;;46.72;14.60;;;;;;;24.40;56.90;92864.13;5007035;28;20038;-77
2022/05/27 11:05:01;;;;;;;28.45;12.25;;;;;;;24.42;55.96;92851.16;5013234;28;20080;-77
2022/05/27 11:07:48;;;;;;;27.00;13.20;;;;;;;24.49;54.65;92851.25;4962157;28;20527;-78
2022/05/27 11:10:35;;;;;;;21.38;12.25;;;;;;;24.46;55.79;92857.31;5003719;28;20034;-78
2022/05/27 11:16:29;;;;;;;26.30;13.18;;;;;;;24.34;55.08;92848.75;5006005;28;20046;-77
2022/05/27 11:19:04;;;;;;;22.30;10.95;;;;;;;24.60;55.87;92847.94;5003424;28;20484;-78
2022/05/27 11:22:02;;;;;;;23.05;13.18;;;;;;;24.72;55.78;92853.84;5001196;28;20120;-79
2022/05/27 11:24:39;;;;;;;26.65;14.90;;;;;;;24.55;54.17;92841.00;4970468;28;20109;-78
2022/05/27 11:27:29;;;;;;;26.35;13.73;;;;;;;24.86;54.12;92831.78;4993583;28;20495;-78
2022/05/27 11:30:17;;;;;;;34.55;13.35;;;;;;;24.72;53.37;92832.41;5006212;28;20034;-77
2022/05/27 11:33:03;;;;;;;30.13;13.07;;;;;;;24.66;52.79;92833.88;4994853;28;20095;-77
2022/05/27 11:35:55;;;;;;;21.50;11.50;;;;;;;24.63;52.23;92829.25;5009011;28;20512;-77
2022/05/27 11:38:39;;;;;;;20.70;11.88;;;;;;;24.49;51.81;92827.19;5002249;28;20416;-78
2022/05/27 11:41:24;;;;;;;18.35;10.25;;;;;;;24.59;51.82;92823.09;5013350;28;20044;-76
2022/05/27 11:44:09;;;;;;;26.98;11.00;;;;;;;24.81;51.88;92818.72;4990340;28;20037;-77
2022/05/27 11:47:14;;;;;;;20.55;10.60;;;;;;;25.07;52.35;92815.16;5002596;28;20018;-78
2022/05/27 11:50:15;;;;;;;26.45;12.88;;;;;;;25.13;52.29;92805.66;4980182;28;20050;-78
2022/05/27 11:52:46;;;;;;;26.33;14.48;;;;;;;24.56;53.44;92805.06;4952755;28;20042;-77
2022/05/27 11:55:25;;;;;;;23.60;13.75;;;;;;;24.51;53.98;92805.41;5012272;28;20029;-76
2022/05/27 11:58:21;;;;;;;27.38;13.32;;;;;;;24.20;54.14;92799.28;5005408;28;20116;-76
2022/05/27 12:01:06;;;;;;;33.45;15.27;;;;;;;23.94;56.53;92794.00;4996262;28;20037;-76
2022/05/27 12:03:41;;;;;;;30.65;15.25;;;;;;;23.66;57.20;92790.56;5008746;28;20034;-76
2022/05/27 12:06:18;;;;;;;41.13;15.10;;;;;;;24.13;56.07;92791.19;5022984;28;20037;-76
2022/05/27 12:09:05;;;;;;;29.13;14.43;;;;;;;24.22;55.35;92786.31;4997297;28;20152;-76